sensor_id;sensor_type;location;lat;lon;timestamp;P1;durP1;ratioP1;P2;durP2;ratioP2
21798;SDS011;24973;47.178;15.316;2023-05-07T00:01:44;9.40;;;7.77;;
21798;SDS011;24973;47.178;15.316;2023-05-07T00:04:33;10.37;;;7.20;;
21798;SDS011;24973;47.178;15.316;2023-05-07T00:07:24;11.03;;;7.93;;
21798;SDS011;24973;47.178;15.316;2023-05-07T00:10:13;7.90;;;7.10;;
21798;SDS011;24973;47.178;15.316;2023-05-07T00:13:01;9.60;;;6.27;;
21798;SDS011;24973;47.178;15.316;2023-05-07T00:15:50;10.93;;;6.87;;
21798;SDS011;24973;47.178;15.316;2023-05-07T00:18:40;7.00;;;5.50;;
21798;SDS011;24973;47.178;15.316;2023-05-07T00:21:29;7.33;;;5.97;;
21798;SDS011;24973;47.178;15.316;2023-05-07T00:24:17;7.67;;;6.40;;
21798;SDS011;24973;47.178;15.316;2023-05-07T00:27:06;6.97;;;6.00;;
21798;SDS011;24973;47.178;15.316;2023-05-07T00:29:54;6.87;;;5.43;;
21798;SDS011;24973;47.178;15.316;2023-05-07T00:32:43;8.70;;;5.13;;
21798;SDS011;24973;47.178;15.316;2023-05-07T00:35:33;4.97;;;4.43;;
21798;SDS011;24973;47.178;15.316;2023-05-07T00:38:22;5.37;;;3.30;;
21798;SDS011;24973;47.178;15.316;2023-05-07T00:41:11;5.03;;;3.80;;
21798;SDS011;24973;47.178;15.316;2023-05-07T00:44:00;3.87;;;3.00;;
21798;SDS011;24973;47.178;15.316;2023-05-07T00:46:48;5.43;;;3.33;;
21798;SDS011;24973;47.178;15.316;2023-05-07T00:49:38;5.20;;;3.00;;
21798;SDS011;24973;47.178;15.316;2023-05-07T00:52:30;2.90;;;2.67;;
21798;SDS011;24973;47.178;15.316;2023-05-07T00:55:19;4.23;;;3.07;;
21798;SDS011;24973;47.178;15.316;2023-05-07T00:58:09;4.60;;;2.47;;
21798;SDS011;24973;47.178;15.316;2023-05-07T01:00:58;2.97;;;2.10;;
21798;SDS011;24973;47.178;15.316;2023-05-07T01:03:46;4.47;;;2.27;;
21798;SDS011;24973;47.178;15.316;2023-05-07T01:06:35;4.80;;;2.00;;
21798;SDS011;24973;47.178;15.316;2023-05-07T01:09:25;4.40;;;1.80;;
21798;SDS011;24973;47.178;15.316;2023-05-07T01:12:15;2.43;;;2.10;;
21798;SDS011;24973;47.178;15.316;2023-05-07T01:15:05;4.70;;;1.70;;
21798;SDS011;24973;47.178;15.316;2023-05-07T01:17:56;3.30;;;2.10;;
21798;SDS011;24973;47.178;15.316;2023-05-07T01:20:45;2.30;;;2.10;;
21798;SDS011;24973;47.178;15.316;2023-05-07T01:23:35;2.47;;;1.90;;
21798;SDS011;24973;47.178;15.316;2023-05-07T01:26:24;3.57;;;1.87;;
21798;SDS011;24973;47.178;15.316;2023-05-07T01:29:13;2.33;;;2.13;;
21798;SDS011;24973;47.178;15.316;2023-05-07T01:32:02;5.83;;;2.07;;
21798;SDS011;24973;47.178;15.316;2023-05-07T01:34:51;5.30;;;2.50;;
21798;SDS011;24973;47.178;15.316;2023-05-07T01:37:41;2.20;;;2.00;;
21798;SDS011;24973;47.178;15.316;2023-05-07T01:40:32;2.03;;;1.83;;
21798;SDS011;24973;47.178;15.316;2023-05-07T01:43:21;2.73;;;1.90;;
21798;SDS011;24973;47.178;15.316;2023-05-07T01:46:10;2.63;;;1.93;;
21798;SDS011;24973;47.178;15.316;2023-05-07T01:49:00;2.13;;;1.67;;
21798;SDS011;24973;47.178;15.316;2023-05-07T01:51:49;1.97;;;1.70;;
21798;SDS011;24973;47.178;15.316;2023-05-07T01:54:38;1.60;;;1.50;;
21798;SDS011;24973;47.178;15.316;2023-05-07T01:57:28;2.40;;;1.73;;
21798;SDS011;24973;47.178;15.316;2023-05-07T02:00:17;1.20;;;1.10;;
21798;SDS011;24973;47.178;15.316;2023-05-07T02:03:06;1.33;;;1.23;;
21798;SDS011;24973;47.178;15.316;2023-05-07T02:05:55;2.50;;;1.40;;
21798;SDS011;24973;47.178;15.316;2023-05-07T02:08:44;1.97;;;1.40;;
21798;SDS011;24973;47.178;15.316;2023-05-07T02:11:32;3.33;;;1.77;;
21798;SDS011;24973;47.178;15.316;2023-05-07T02:14:22;2.30;;;2.10;;
21798;SDS011;24973;47.178;15.316;2023-05-07T02:17:12;2.40;;;2.20;;
21798;SDS011;24973;47.178;15.316;2023-05-07T02:20:01;1.93;;;1.47;;
21798;SDS011;24973;47.178;15.316;2023-05-07T02:22:50;1.73;;;1.63;;
21798;SDS011;24973;47.178;15.316;2023-05-07T02:25:39;1.60;;;1.40;;
21798;SDS011;24973;47.178;15.316;2023-05-07T02:28:27;1.47;;;1.30;;
21798;SDS011;24973;47.178;15.316;2023-05-07T02:31:17;2.50;;;1.30;;
21798;SDS011;24973;47.178;15.316;2023-05-07T02:34:06;3.17;;;1.87;;
21798;SDS011;24973;47.178;15.316;2023-05-07T02:36:55;2.00;;;1.70;;
21798;SDS011;24973;47.178;15.316;2023-05-07T02:39:43;3.77;;;1.63;;
21798;SDS011;24973;47.178;15.316;2023-05-07T02:42:32;3.97;;;1.70;;
21798;SDS011;24973;47.178;15.316;2023-05-07T02:45:21;2.93;;;1.33;;
21798;SDS011;24973;47.178;15.316;2023-05-07T02:48:11;2.57;;;1.60;;
21798;SDS011;24973;47.178;15.316;2023-05-07T02:51:00;1.57;;;1.47;;
21798;SDS011;24973;47.178;15.316;2023-05-07T02:53:49;1.70;;;1.60;;
21798;SDS011;24973;47.178;15.316;2023-05-07T02:56:37;2.00;;;1.80;;
21798;SDS011;24973;47.178;15.316;2023-05-07T02:59:26;2.20;;;1.80;;
21798;SDS011;24973;47.178;15.316;2023-05-07T03:02:15;1.70;;;1.60;;
21798;SDS011;24973;47.178;15.316;2023-05-07T03:05:06;2.90;;;2.30;;
21798;SDS011;24973;47.178;15.316;2023-05-07T03:07:54;4.00;;;1.87;;
21798;SDS011;24973;47.178;15.316;2023-05-07T03:10:43;1.57;;;1.47;;
21798;SDS011;24973;47.178;15.316;2023-05-07T03:13:32;2.60;;;2.03;;
21798;SDS011;24973;47.178;15.316;2023-05-07T03:16:20;1.80;;;1.70;;
21798;SDS011;24973;47.178;15.316;2023-05-07T03:19:09;1.73;;;1.47;;
21798;SDS011;24973;47.178;15.316;2023-05-07T03:21:59;1.57;;;1.47;;
21798;SDS011;24973;47.178;15.316;2023-05-07T03:24:48;2.43;;;1.57;;
21798;SDS011;24973;47.178;15.316;2023-05-07T03:27:37;3.15;;;1.70;;
21798;SDS011;24973;47.178;15.316;2023-05-07T03:30:25;2.27;;;1.47;;
21798;SDS011;24973;47.178;15.316;2023-05-07T03:33:14;1.47;;;1.37;;
21798;SDS011;24973;47.178;15.316;2023-05-07T03:36:03;1.13;;;1.13;;
21798;SDS011;24973;47.178;15.316;2023-05-07T03:38:53;1.83;;;1.50;;
21798;SDS011;24973;47.178;15.316;2023-05-07T03:41:42;3.37;;;1.80;;
21798;SDS011;24973;47.178;15.316;2023-05-07T03:44:31;1.83;;;1.73;;
21798;SDS011;24973;47.178;15.316;2023-05-07T03:47:19;1.40;;;1.30;;
21798;SDS011;24973;47.178;15.316;2023-05-07T03:50:08;2.10;;;1.90;;
21798;SDS011;24973;47.178;15.316;2023-05-07T03:52:58;1.63;;;1.53;;
21798;SDS011;24973;47.178;15.316;2023-05-07T03:55:48;1.40;;;1.30;;
21798;SDS011;24973;47.178;15.316;2023-05-07T03:58:37;3.60;;;1.57;;
21798;SDS011;24973;47.178;15.316;2023-05-07T04:01:25;3.27;;;1.90;;
21798;SDS011;24973;47.178;15.316;2023-05-07T04:04:14;1.70;;;1.40;;
21798;SDS011;24973;47.178;15.316;2023-05-07T04:07:03;2.37;;;1.57;;
21798;SDS011;24973;47.178;15.316;2023-05-07T04:09:52;1.73;;;1.63;;
21798;SDS011;24973;47.178;15.316;2023-05-07T04:12:42;1.73;;;1.53;;
21798;SDS011;24973;47.178;15.316;2023-05-07T04:15:31;1.20;;;1.10;;
21798;SDS011;24973;47.178;15.316;2023-05-07T04:18:19;1.97;;;1.33;;
21798;SDS011;24973;47.178;15.316;2023-05-07T04:21:13;2.77;;;2.40;;
21798;SDS011;24973;47.178;15.316;2023-05-07T04:24:03;1.50;;;1.40;;
21798;SDS011;24973;47.178;15.316;2023-05-07T04:26:52;1.20;;;1.10;;
21798;SDS011;24973;47.178;15.316;2023-05-07T04:29:43;2.93;;;1.40;;
21798;SDS011;24973;47.178;15.316;2023-05-07T04:32:33;1.40;;;1.30;;
21798;SDS011;24973;47.178;15.316;2023-05-07T04:35:23;1.47;;;1.37;;
21798;SDS011;24973;47.178;15.316;2023-05-07T04:38:11;3.00;;;1.77;;
21798;SDS011;24973;47.178;15.316;2023-05-07T04:41:02;1.37;;;1.27;;
21798;SDS011;24973;47.178;15.316;2023-05-07T04:43:52;1.40;;;1.30;;
21798;SDS011;24973;47.178;15.316;2023-05-07T04:46:42;1.97;;;1.30;;
21798;SDS011;24973;47.178;15.316;2023-05-07T04:49:31;1.50;;;1.40;;
21798;SDS011;24973;47.178;15.316;2023-05-07T04:52:19;1.70;;;1.60;;
21798;SDS011;24973;47.178;15.316;2023-05-07T04:55:08;1.20;;;1.10;;
21798;SDS011;24973;47.178;15.316;2023-05-07T04:57:57;1.83;;;1.50;;
21798;SDS011;24973;47.178;15.316;2023-05-07T05:00:48;1.87;;;1.77;;
21798;SDS011;24973;47.178;15.316;2023-05-07T05:03:38;2.17;;;1.30;;
21798;SDS011;24973;47.178;15.316;2023-05-07T05:06:27;1.80;;;1.70;;
21798;SDS011;24973;47.178;15.316;2023-05-07T05:09:17;3.93;;;1.90;;
21798;SDS011;24973;47.178;15.316;2023-05-07T05:12:05;8.57;;;5.03;;
21798;SDS011;24973;47.178;15.316;2023-05-07T05:14:55;19.73;;;10.20;;
21798;SDS011;24973;47.178;15.316;2023-05-07T05:17:44;19.87;;;10.57;;
21798;SDS011;24973;47.178;15.316;2023-05-07T05:20:34;13.90;;;8.67;;
21798;SDS011;24973;47.178;15.316;2023-05-07T05:23:23;10.53;;;7.50;;
21798;SDS011;24973;47.178;15.316;2023-05-07T05:26:12;11.23;;;7.17;;
21798;SDS011;24973;47.178;15.316;2023-05-07T05:29:00;9.47;;;6.57;;
21798;SDS011;24973;47.178;15.316;2023-05-07T05:31:49;10.83;;;6.83;;
21798;SDS011;24973;47.178;15.316;2023-05-07T05:34:38;8.87;;;5.90;;
21798;SDS011;24973;47.178;15.316;2023-05-07T05:37:28;8.77;;;4.73;;
21798;SDS011;24973;47.178;15.316;2023-05-07T05:40:18;6.63;;;4.47;;
21798;SDS011;24973;47.178;15.316;2023-05-07T05:43:07;10.40;;;6.77;;
21798;SDS011;24973;47.178;15.316;2023-05-07T05:45:56;5.53;;;4.03;;
21798;SDS011;24973;47.178;15.316;2023-05-07T05:48:45;4.87;;;2.57;;
21798;SDS011;24973;47.178;15.316;2023-05-07T05:51:34;3.87;;;3.27;;
21798;SDS011;24973;47.178;15.316;2023-05-07T05:54:24;3.07;;;2.77;;
21798;SDS011;24973;47.178;15.316;2023-05-07T05:57:13;3.87;;;2.03;;
21798;SDS011;24973;47.178;15.316;2023-05-07T06:00:01;2.90;;;2.53;;
21798;SDS011;24973;47.178;15.316;2023-05-07T06:02:51;3.20;;;2.90;;
21798;SDS011;24973;47.178;15.316;2023-05-07T06:05:40;6.30;;;3.47;;
21798;SDS011;24973;47.178;15.316;2023-05-07T06:08:29;6.37;;;4.40;;
21798;SDS011;24973;47.178;15.316;2023-05-07T06:11:19;5.13;;;4.37;;
21798;SDS011;24973;47.178;15.316;2023-05-07T06:14:08;5.40;;;4.60;;
21798;SDS011;24973;47.178;15.316;2023-05-07T06:16:56;4.57;;;4.00;;
21798;SDS011;24973;47.178;15.316;2023-05-07T06:19:45;4.23;;;3.83;;
21798;SDS011;24973;47.178;15.316;2023-05-07T06:22:34;5.13;;;4.63;;
21798;SDS011;24973;47.178;15.316;2023-05-07T06:25:22;5.47;;;4.43;;
21798;SDS011;24973;47.178;15.316;2023-05-07T06:28:13;6.17;;;4.97;;
21798;SDS011;24973;47.178;15.316;2023-05-07T06:31:11;5.80;;;4.00;;
21798;SDS011;24973;47.178;15.316;2023-05-07T06:34:01;5.37;;;4.00;;
21798;SDS011;24973;47.178;15.316;2023-05-07T06:36:49;5.00;;;4.50;;
21798;SDS011;24973;47.178;15.316;2023-05-07T06:39:38;4.70;;;4.17;;
21798;SDS011;24973;47.178;15.316;2023-05-07T06:42:27;4.77;;;4.37;;
21798;SDS011;24973;47.178;15.316;2023-05-07T06:45:17;3.97;;;3.67;;
21798;SDS011;24973;47.178;15.316;2023-05-07T06:48:07;4.93;;;4.50;;
21798;SDS011;24973;47.178;15.316;2023-05-07T06:50:55;9.97;;;4.87;;
21798;SDS011;24973;47.178;15.316;2023-05-07T06:53:44;4.57;;;4.17;;
21798;SDS011;24973;47.178;15.316;2023-05-07T06:56:33;4.40;;;3.87;;
21798;SDS011;24973;47.178;15.316;2023-05-07T06:59:23;5.37;;;4.37;;
21798;SDS011;24973;47.178;15.316;2023-05-07T07:02:13;8.80;;;4.03;;
21798;SDS011;24973;47.178;15.316;2023-05-07T07:05:03;4.60;;;3.47;;
21798;SDS011;24973;47.178;15.316;2023-05-07T07:07:53;4.13;;;3.57;;
21798;SDS011;24973;47.178;15.316;2023-05-07T07:10:41;3.80;;;3.50;;
21798;SDS011;24973;47.178;15.316;2023-05-07T07:13:30;6.03;;;3.40;;
21798;SDS011;24973;47.178;15.316;2023-05-07T07:16:19;4.13;;;3.60;;
21798;SDS011;24973;47.178;15.316;2023-05-07T07:19:09;4.53;;;3.47;;
21798;SDS011;24973;47.178;15.316;2023-05-07T07:21:58;3.17;;;2.87;;
21798;SDS011;24973;47.178;15.316;2023-05-07T07:24:47;4.97;;;3.40;;
21798;SDS011;24973;47.178;15.316;2023-05-07T07:27:35;4.07;;;3.07;;
21798;SDS011;24973;47.178;15.316;2023-05-07T07:30:24;3.67;;;3.07;;
21798;SDS011;24973;47.178;15.316;2023-05-07T07:33:13;3.13;;;2.83;;
21798;SDS011;24973;47.178;15.316;2023-05-07T07:36:04;4.67;;;3.07;;
21798;SDS011;24973;47.178;15.316;2023-05-07T07:38:54;3.57;;;2.90;;
21798;SDS011;24973;47.178;15.316;2023-05-07T07:41:42;2.87;;;2.57;;
21798;SDS011;24973;47.178;15.316;2023-05-07T07:44:31;3.73;;;3.03;;
21798;SDS011;24973;47.178;15.316;2023-05-07T07:47:20;3.20;;;2.90;;
21798;SDS011;24973;47.178;15.316;2023-05-07T07:50:09;2.33;;;2.13;;
21798;SDS011;24973;47.178;15.316;2023-05-07T07:53:01;2.43;;;2.23;;
21798;SDS011;24973;47.178;15.316;2023-05-07T07:55:50;2.87;;;2.17;;
21798;SDS011;24973;47.178;15.316;2023-05-07T07:58:40;2.30;;;2.10;;
21798;SDS011;24973;47.178;15.316;2023-05-07T08:01:29;2.33;;;2.13;;
21798;SDS011;24973;47.178;15.316;2023-05-07T08:04:18;5.10;;;2.40;;
21798;SDS011;24973;47.178;15.316;2023-05-07T08:07:07;2.30;;;2.10;;
21798;SDS011;24973;47.178;15.316;2023-05-07T08:09:57;5.60;;;2.73;;
21798;SDS011;24973;47.178;15.316;2023-05-07T08:12:46;2.97;;;2.13;;
21798;SDS011;24973;47.178;15.316;2023-05-07T08:15:35;2.73;;;2.47;;
21798;SDS011;24973;47.178;15.316;2023-05-07T08:18:24;3.73;;;2.73;;
21798;SDS011;24973;47.178;15.316;2023-05-07T08:21:15;4.23;;;2.90;;
21798;SDS011;24973;47.178;15.316;2023-05-07T08:24:04;4.83;;;2.73;;
21798;SDS011;24973;47.178;15.316;2023-05-07T08:26:54;2.57;;;2.37;;
21798;SDS011;24973;47.178;15.316;2023-05-07T08:29:43;3.43;;;3.13;;
21798;SDS011;24973;47.178;15.316;2023-05-07T08:32:34;4.13;;;3.10;;
21798;SDS011;24973;47.178;15.316;2023-05-07T08:35:22;2.87;;;2.67;;
21798;SDS011;24973;47.178;15.316;2023-05-07T08:38:12;4.57;;;2.83;;
21798;SDS011;24973;47.178;15.316;2023-05-07T08:41:00;4.07;;;2.47;;
21798;SDS011;24973;47.178;15.316;2023-05-07T08:43:50;4.20;;;2.57;;
21798;SDS011;24973;47.178;15.316;2023-05-07T08:46:39;2.97;;;2.67;;
21798;SDS011;24973;47.178;15.316;2023-05-07T08:49:30;2.40;;;2.20;;
21798;SDS011;24973;47.178;15.316;2023-05-07T08:52:19;3.03;;;2.70;;
21798;SDS011;24973;47.178;15.316;2023-05-07T08:55:08;2.87;;;2.67;;
21798;SDS011;24973;47.178;15.316;2023-05-07T08:57:58;3.50;;;3.20;;
21798;SDS011;24973;47.178;15.316;2023-05-07T09:00:48;3.53;;;3.23;;
21798;SDS011;24973;47.178;15.316;2023-05-07T09:03:37;3.97;;;2.90;;
21798;SDS011;24973;47.178;15.316;2023-05-07T09:06:27;5.83;;;2.60;;
21798;SDS011;24973;47.178;15.316;2023-05-07T09:09:16;2.97;;;2.70;;
21798;SDS011;24973;47.178;15.316;2023-05-07T09:12:06;4.13;;;2.80;;
21798;SDS011;24973;47.178;15.316;2023-05-07T09:14:55;4.17;;;2.70;;
21798;SDS011;24973;47.178;15.316;2023-05-07T09:17:45;2.97;;;2.50;;
21798;SDS011;24973;47.178;15.316;2023-05-07T09:20:34;3.03;;;2.83;;
21798;SDS011;24973;47.178;15.316;2023-05-07T09:23:24;2.80;;;2.60;;
21798;SDS011;24973;47.178;15.316;2023-05-07T09:26:13;2.97;;;2.67;;
21798;SDS011;24973;47.178;15.316;2023-05-07T09:29:02;2.83;;;2.63;;
21798;SDS011;24973;47.178;15.316;2023-05-07T09:31:51;2.67;;;2.47;;
21798;SDS011;24973;47.178;15.316;2023-05-07T09:34:41;3.07;;;2.77;;
21798;SDS011;24973;47.178;15.316;2023-05-07T09:37:30;2.57;;;2.20;;
21798;SDS011;24973;47.178;15.316;2023-05-07T09:40:20;2.67;;;2.47;;
21798;SDS011;24973;47.178;15.316;2023-05-07T09:43:10;3.07;;;2.67;;
21798;SDS011;24973;47.178;15.316;2023-05-07T09:45:59;3.23;;;2.67;;
21798;SDS011;24973;47.178;15.316;2023-05-07T09:48:56;2.90;;;2.70;;
21798;SDS011;24973;47.178;15.316;2023-05-07T09:51:50;3.10;;;2.50;;
21798;SDS011;24973;47.178;15.316;2023-05-07T09:54:39;2.27;;;2.07;;
21798;SDS011;24973;47.178;15.316;2023-05-07T09:57:30;3.13;;;2.37;;
21798;SDS011;24973;47.178;15.316;2023-05-07T10:00:20;2.70;;;2.50;;
21798;SDS011;24973;47.178;15.316;2023-05-07T10:03:10;4.60;;;2.63;;
21798;SDS011;24973;47.178;15.316;2023-05-07T10:06:00;3.33;;;2.33;;
21798;SDS011;24973;47.178;15.316;2023-05-07T10:08:51;2.73;;;2.30;;
21798;SDS011;24973;47.178;15.316;2023-05-07T10:11:40;2.87;;;2.13;;
21798;SDS011;24973;47.178;15.316;2023-05-07T10:14:29;3.97;;;2.47;;
21798;SDS011;24973;47.178;15.316;2023-05-07T10:17:18;3.37;;;3.00;;
21798;SDS011;24973;47.178;15.316;2023-05-07T10:20:08;2.77;;;2.53;;
21798;SDS011;24973;47.178;15.316;2023-05-07T10:22:57;3.80;;;2.77;;
21798;SDS011;24973;47.178;15.316;2023-05-07T10:25:48;6.07;;;2.60;;
21798;SDS011;24973;47.178;15.316;2023-05-07T10:28:38;2.57;;;2.37;;
21798;SDS011;24973;47.178;15.316;2023-05-07T10:31:38;2.97;;;2.53;;
21798;SDS011;24973;47.178;15.316;2023-05-07T10:34:43;2.43;;;2.20;;
21798;SDS011;24973;47.178;15.316;2023-05-07T10:37:35;3.63;;;2.23;;
21798;SDS011;24973;47.178;15.316;2023-05-07T10:40:24;2.10;;;2.00;;
21798;SDS011;24973;47.178;15.316;2023-05-07T10:43:14;3.53;;;2.57;;
21798;SDS011;24973;47.178;15.316;2023-05-07T10:46:09;2.37;;;2.17;;
21798;SDS011;24973;47.178;15.316;2023-05-07T10:49:09;2.40;;;2.20;;
21798;SDS011;24973;47.178;15.316;2023-05-07T10:52:11;2.57;;;2.00;;
21798;SDS011;24973;47.178;15.316;2023-05-07T10:58:25;2.23;;;2.03;;
21798;SDS011;24973;47.178;15.316;2023-05-07T11:01:19;4.47;;;2.27;;
21798;SDS011;24973;47.178;15.316;2023-05-07T11:04:39;2.70;;;1.83;;
21798;SDS011;24973;47.178;15.316;2023-05-07T11:07:29;3.67;;;2.27;;
21798;SDS011;24973;47.178;15.316;2023-05-07T11:10:18;3.20;;;2.03;;
21798;SDS011;24973;47.178;15.316;2023-05-07T11:13:08;2.33;;;2.17;;
21798;SDS011;24973;47.178;15.316;2023-05-07T11:15:58;2.70;;;2.43;;
21798;SDS011;24973;47.178;15.316;2023-05-07T11:18:48;1.70;;;1.60;;
21798;SDS011;24973;47.178;15.316;2023-05-07T11:21:38;2.20;;;2.00;;
21798;SDS011;24973;47.178;15.316;2023-05-07T11:24:29;3.13;;;2.70;;
21798;SDS011;24973;47.178;15.316;2023-05-07T11:27:27;2.03;;;1.87;;
21798;SDS011;24973;47.178;15.316;2023-05-07T11:30:16;2.30;;;2.10;;
21798;SDS011;24973;47.178;15.316;2023-05-07T11:33:07;2.00;;;1.80;;
21798;SDS011;24973;47.178;15.316;2023-05-07T11:35:57;2.03;;;1.93;;
21798;SDS011;24973;47.178;15.316;2023-05-07T11:38:47;2.00;;;1.90;;
21798;SDS011;24973;47.178;15.316;2023-05-07T11:41:36;2.07;;;1.83;;
21798;SDS011;24973;47.178;15.316;2023-05-07T11:44:25;3.07;;;2.37;;
21798;SDS011;24973;47.178;15.316;2023-05-07T11:47:30;2.03;;;1.93;;
21798;SDS011;24973;47.178;15.316;2023-05-07T11:50:20;2.20;;;1.87;;
21798;SDS011;24973;47.178;15.316;2023-05-07T11:53:09;2.30;;;2.10;;
21798;SDS011;24973;47.178;15.316;2023-05-07T11:55:59;3.03;;;2.10;;
21798;SDS011;24973;47.178;15.316;2023-05-07T11:58:48;2.57;;;2.37;;
21798;SDS011;24973;47.178;15.316;2023-05-07T12:01:38;2.40;;;2.10;;
21798;SDS011;24973;47.178;15.316;2023-05-07T12:04:29;3.07;;;1.87;;
21798;SDS011;24973;47.178;15.316;2023-05-07T12:07:19;4.97;;;2.00;;
21798;SDS011;24973;47.178;15.316;2023-05-07T12:10:09;2.50;;;2.30;;
21798;SDS011;24973;47.178;15.316;2023-05-07T12:13:00;3.27;;;2.70;;
21798;SDS011;24973;47.178;15.316;2023-05-07T12:15:50;2.60;;;2.40;;
21798;SDS011;24973;47.178;15.316;2023-05-07T12:18:39;1.80;;;1.70;;
21798;SDS011;24973;47.178;15.316;2023-05-07T12:21:28;2.67;;;2.40;;
21798;SDS011;24973;47.178;15.316;2023-05-07T12:24:19;4.10;;;2.03;;
21798;SDS011;24973;47.178;15.316;2023-05-07T12:27:07;3.10;;;2.17;;
21798;SDS011;24973;47.178;15.316;2023-05-07T12:29:57;3.70;;;2.40;;
21798;SDS011;24973;47.178;15.316;2023-05-07T12:32:46;6.13;;;2.20;;
21798;SDS011;24973;47.178;15.316;2023-05-07T12:35:40;2.73;;;2.53;;
21798;SDS011;24973;47.178;15.316;2023-05-07T12:38:34;3.43;;;3.13;;
21798;SDS011;24973;47.178;15.316;2023-05-07T12:41:25;5.33;;;3.30;;
21798;SDS011;24973;47.178;15.316;2023-05-07T12:44:15;3.63;;;2.57;;
21798;SDS011;24973;47.178;15.316;2023-05-07T12:47:04;3.23;;;2.93;;
21798;SDS011;24973;47.178;15.316;2023-05-07T12:49:54;6.00;;;2.93;;
21798;SDS011;24973;47.178;15.316;2023-05-07T12:52:42;6.13;;;4.30;;
21798;SDS011;24973;47.178;15.316;2023-05-07T12:55:32;2.67;;;2.47;;
21798;SDS011;24973;47.178;15.316;2023-05-07T12:58:32;4.27;;;2.80;;
21798;SDS011;24973;47.178;15.316;2023-05-07T13:01:28;3.63;;;2.57;;
21798;SDS011;24973;47.178;15.316;2023-05-07T13:04:20;4.27;;;2.93;;
21798;SDS011;24973;47.178;15.316;2023-05-07T13:07:16;3.60;;;2.50;;
21798;SDS011;24973;47.178;15.316;2023-05-07T13:10:06;2.50;;;2.10;;
21798;SDS011;24973;47.178;15.316;2023-05-07T13:12:56;5.43;;;2.10;;
21798;SDS011;24973;47.178;15.316;2023-05-07T13:15:46;9.80;;;2.67;;
21798;SDS011;24973;47.178;15.316;2023-05-07T13:18:36;5.23;;;3.30;;
21798;SDS011;24973;47.178;15.316;2023-05-07T13:21:26;2.63;;;1.90;;
21798;SDS011;24973;47.178;15.316;2023-05-07T13:24:15;3.43;;;2.10;;
21798;SDS011;24973;47.178;15.316;2023-05-07T13:27:03;3.67;;;2.30;;
21798;SDS011;24973;47.178;15.316;2023-05-07T13:29:52;2.47;;;2.20;;
21798;SDS011;24973;47.178;15.316;2023-05-07T13:32:42;3.33;;;1.80;;
21798;SDS011;24973;47.178;15.316;2023-05-07T13:35:32;2.03;;;1.83;;
21798;SDS011;24973;47.178;15.316;2023-05-07T13:38:21;2.43;;;2.23;;
21798;SDS011;24973;47.178;15.316;2023-05-07T13:41:10;3.07;;;1.90;;
21798;SDS011;24973;47.178;15.316;2023-05-07T13:43:59;2.77;;;1.97;;
21798;SDS011;24973;47.178;15.316;2023-05-07T13:46:48;1.70;;;1.60;;
21798;SDS011;24973;47.178;15.316;2023-05-07T13:49:38;1.43;;;1.33;;
21798;SDS011;24973;47.178;15.316;2023-05-07T13:52:27;2.93;;;1.43;;
21798;SDS011;24973;47.178;15.316;2023-05-07T13:55:16;2.30;;;1.97;;
21798;SDS011;24973;47.178;15.316;2023-05-07T13:58:05;3.80;;;2.47;;
21798;SDS011;24973;47.178;15.316;2023-05-07T14:00:54;3.67;;;1.90;;
21798;SDS011;24973;47.178;15.316;2023-05-07T14:03:43;1.70;;;1.60;;
21798;SDS011;24973;47.178;15.316;2023-05-07T14:06:33;3.07;;;1.70;;
21798;SDS011;24973;47.178;15.316;2023-05-07T14:09:22;2.57;;;1.87;;
21798;SDS011;24973;47.178;15.316;2023-05-07T14:12:11;1.37;;;1.27;;
21798;SDS011;24973;47.178;15.316;2023-05-07T14:14:59;1.47;;;1.13;;
21798;SDS011;24973;47.178;15.316;2023-05-07T14:17:48;1.13;;;1.10;;
21798;SDS011;24973;47.178;15.316;2023-05-07T14:20:37;1.73;;;1.50;;
21798;SDS011;24973;47.178;15.316;2023-05-07T14:23:27;1.50;;;1.30;;
21798;SDS011;24973;47.178;15.316;2023-05-07T14:26:16;2.40;;;2.20;;
21798;SDS011;24973;47.178;15.316;2023-05-07T14:29:05;3.37;;;2.40;;
21798;SDS011;24973;47.178;15.316;2023-05-07T14:31:54;2.60;;;2.40;;
21798;SDS011;24973;47.178;15.316;2023-05-07T14:34:43;2.70;;;2.50;;
21798;SDS011;24973;47.178;15.316;2023-05-07T14:37:32;5.00;;;1.77;;
21798;SDS011;24973;47.178;15.316;2023-05-07T14:40:22;4.07;;;2.37;;
21798;SDS011;24973;47.178;15.316;2023-05-07T14:43:11;2.70;;;2.50;;
21798;SDS011;24973;47.178;15.316;2023-05-07T14:46:00;2.77;;;2.43;;
21798;SDS011;24973;47.178;15.316;2023-05-07T14:48:48;2.57;;;2.23;;
21798;SDS011;24973;47.178;15.316;2023-05-07T14:51:37;2.60;;;2.40;;
21798;SDS011;24973;47.178;15.316;2023-05-07T14:54:26;3.10;;;2.90;;
21798;SDS011;24973;47.178;15.316;2023-05-07T14:57:17;5.43;;;2.77;;
21798;SDS011;24973;47.178;15.316;2023-05-07T15:00:06;4.13;;;3.73;;
21798;SDS011;24973;47.178;15.316;2023-05-07T15:02:59;4.47;;;4.07;;
21798;SDS011;24973;47.178;15.316;2023-05-07T15:05:54;5.20;;;4.67;;
21798;SDS011;24973;47.178;15.316;2023-05-07T15:08:43;5.00;;;4.50;;
21798;SDS011;24973;47.178;15.316;2023-05-07T15:11:31;4.60;;;4.20;;
21798;SDS011;24973;47.178;15.316;2023-05-07T15:14:22;4.80;;;4.13;;
21798;SDS011;24973;47.178;15.316;2023-05-07T15:17:10;5.00;;;4.40;;
21798;SDS011;24973;47.178;15.316;2023-05-07T15:20:01;5.47;;;4.67;;
21798;SDS011;24973;47.178;15.316;2023-05-07T15:22:51;7.37;;;4.63;;
21798;SDS011;24973;47.178;15.316;2023-05-07T15:25:40;6.10;;;4.93;;
21798;SDS011;24973;47.178;15.316;2023-05-07T15:28:29;5.60;;;5.07;;
21798;SDS011;24973;47.178;15.316;2023-05-07T15:31:19;6.17;;;4.83;;
21798;SDS011;24973;47.178;15.316;2023-05-07T15:34:08;4.70;;;4.27;;
21798;SDS011;24973;47.178;15.316;2023-05-07T15:36:57;6.17;;;5.57;;
21798;SDS011;24973;47.178;15.316;2023-05-07T15:39:45;5.50;;;5.00;;
21798;SDS011;24973;47.178;15.316;2023-05-07T15:42:34;6.07;;;5.47;;
21798;SDS011;24973;47.178;15.316;2023-05-07T15:45:23;6.20;;;5.07;;
21798;SDS011;24973;47.178;15.316;2023-05-07T15:48:13;8.03;;;5.53;;
21798;SDS011;24973;47.178;15.316;2023-05-07T15:51:02;7.37;;;5.80;;
21798;SDS011;24973;47.178;15.316;2023-05-07T15:53:53;5.30;;;4.80;;
21798;SDS011;24973;47.178;15.316;2023-05-07T15:56:42;6.50;;;5.70;;
21798;SDS011;24973;47.178;15.316;2023-05-07T15:59:30;6.27;;;5.27;;
21798;SDS011;24973;47.178;15.316;2023-05-07T16:02:19;6.43;;;5.80;;
21798;SDS011;24973;47.178;15.316;2023-05-07T16:05:09;6.10;;;5.50;;
21798;SDS011;24973;47.178;15.316;2023-05-07T16:07:59;5.27;;;4.73;;
21798;SDS011;24973;47.178;15.316;2023-05-07T16:10:48;8.67;;;4.83;;
21798;SDS011;24973;47.178;15.316;2023-05-07T16:13:36;6.33;;;5.27;;
21798;SDS011;24973;47.178;15.316;2023-05-07T16:16:25;5.00;;;4.60;;
21798;SDS011;24973;47.178;15.316;2023-05-07T16:19:15;7.10;;;6.40;;
21798;SDS011;24973;47.178;15.316;2023-05-07T16:22:06;5.63;;;5.23;;
21798;SDS011;24973;47.178;15.316;2023-05-07T16:24:54;10.10;;;5.47;;
21798;SDS011;24973;47.178;15.316;2023-05-07T16:27:43;6.37;;;5.33;;
21798;SDS011;24973;47.178;15.316;2023-05-07T16:30:32;7.77;;;6.97;;
21798;SDS011;24973;47.178;15.316;2023-05-07T16:33:21;9.63;;;7.47;;
21798;SDS011;24973;47.178;15.316;2023-05-07T16:36:09;10.33;;;7.30;;
21798;SDS011;24973;47.178;15.316;2023-05-07T16:39:00;8.43;;;6.63;;
21798;SDS011;24973;47.178;15.316;2023-05-07T16:41:48;7.47;;;5.10;;
21798;SDS011;24973;47.178;15.316;2023-05-07T16:44:37;6.83;;;5.50;;
21798;SDS011;24973;47.178;15.316;2023-05-07T16:47:26;6.73;;;6.03;;
21798;SDS011;24973;47.178;15.316;2023-05-07T16:50:15;8.43;;;5.00;;